Weather observations for the past three days for
Santa Rosa, Santa Rosa Sonoma County Airport
Imperial (Metric)
Date Time (pdt) Wind (mph) Vis. (mi.) Weather Sky Cond. Temperature (ºF) Relative Humidity Wind Chill (°F) Heat Index (°F) Pressure Precipitation (in)
Air Dwpt 6 hour altimeter (in) sea level (mb) 1 hr 3 hr 6 hr
Max. Min.
07 04:53 SE 3 7.00 Overcast OVC003 52 51.1 53.1 52 97% 30.08 1018.1
07 03:53 S 3 9.00 Overcast OVC004 52 51.1 97% 30.09 1018.2
07 02:53 S 3 10.00 Overcast OVC005 53.1 51.1 93% 30.09 1018.3
07 01:53 SE 7 10.00 Overcast OVC005 53.1 51.1 93% 30.1 1018.7
07 00:53 SE 7 10.00 Overcast OVC006 53.1 51.1 93% 30.1 1018.5
06 23:53 SE 6 10.00 Partly Cloudy SCT007 52 50 93% 30.09 1018.3
06 22:53 SE 9 10.00 Fair CLR 53.1 51.1 71.1 53.1 93% 30.08 1018.0
06 21:53 SE 7 10.00 Fair CLR 54 51.1 90% 30.08 1017.9
06 20:53 SE 9 10.00 Fair CLR 55.9 52 87% 30.07 1017.6
06 19:53 SE 9 10.00 Fair CLR 61 53.1 75% 30.06 1017.3
06 18:53 S 7 10.00 Fair CLR 66.9 52 59% 30.06 1017.2
06 17:53 S 9 10.00 Fair CLR 69.1 53.1 57% 30.06 1017.3
06 16:53 SW 10 10.00 A Few Clouds FEW040 71.1 53.1 73.9 66 53% 30.06 1017.2
06 15:53 SW 7 G 17 10.00 A Few Clouds FEW050 73 55 53% 30.07 1017.6
06 14:53 S 10 10.00 A Few Clouds FEW050 73 57 57% 30.09 1018.2
06 13:53 Vrbl 5 10.00 Partly Cloudy SCT050 73 57 57% 30.1 1018.5
06 12:53 S 7 10.00 Partly Cloudy SCT040 71.1 55.9 59% 30.11 1019.0
06 11:53 Calm 10.00 Fair CLR 69.1 55.9 63% 30.13 1019.6
06 10:53 Calm 10.00 Partly Cloudy SCT040 66 55 66.9 54 68% 30.13 1019.8
06 09:53 Calm 10.00 Partly Cloudy SCT044 63 54 73% 30.14 1020.0
06 08:53 Calm 10.00 Overcast FEW010 OVC043 57.9 52 81% 30.15 1020.2
06 07:53 Calm 10.00 Overcast FEW015 OVC043 55.9 52 87% 30.14 1020.0
06 06:53 Calm 10.00 Overcast OVC042 55 52 90% 30.13 1019.7
06 05:53 Calm 10.00 Overcast FEW022 OVC042 55 52 90% 30.12 1019.3
06 04:53 Calm 10.00 Overcast OVC041 55 52 55 55 90% 30.11 1019.0
06 03:53 S 5 10.00 Overcast FEW009 OVC041 55 52 90% 30.1 1018.7
06 02:53 S 3 10.00 Overcast OVC042 55 52 90% 30.09 1018.3
06 01:53 S 5 10.00 Overcast OVC040 55 51.1 87% 30.09 1018.4
06 00:53 SE 5 10.00 Overcast OVC038 55 51.1 87% 30.09 1018.2
05 23:53 SE 7 10.00 Overcast OVC034 55 51.1 87% 30.07 1017.8
05 22:53 SE 6 10.00 Overcast OVC032 55.9 52 64.9 55.9 87% 30.06 1017.4
05 21:53 SE 7 10.00 Overcast OVC033 55.9 52 87% 30.05 1017.0
05 20:53 SE 6 10.00 Overcast OVC034 57.9 51.1 78% 30.03 1016.2
05 19:53 S 8 10.00 Overcast OVC035 60.1 50 70% 29.99 1015.1
05 18:53 S 9 10.00 Mostly Cloudy BKN032 61 50 67% 29.98 1014.6
05 17:53 SW 8 10.00 Mostly Cloudy BKN039 63 51.1 65% 29.97 1014.4
05 16:53 SW 10 10.00 Mostly Cloudy BKN030 64.9 52 66 60.1 63% 29.96 1014.0
05 15:53 S 7 10.00 Overcast OVC030 66 53.1 63% 29.97 1014.1
05 14:53 S 5 10.00 Overcast OVC028 64.9 53.1 66% 29.98 1014.5
05 13:53 Calm 10.00 Overcast OVC028 63 51.1 65% 29.99 1014.9
05 12:53 S 6 10.00 Overcast OVC024 62.1 52 70% 29.99 1015.1
05 11:53 Vrbl 5 10.00 Overcast OVC025 61 51.1 70% 29.99 1015.1
05 10:53 SW 3 10.00 Overcast OVC020 60.1 50 60.1 52 70% 29.99 1015.0
05 09:53 Calm 10.00 Mostly Cloudy SCT018 BKN024 57.9 51.1 78% 29.99 1014.8
05 08:53 W 5 10.00 Mostly Cloudy SCT013 BKN028 BKN060 57.9 51.1 78% 29.98 1014.5
05 07:53 W 6 10.00 Mostly Cloudy FEW007 SCT030 BKN060 54 51.1 90% 29.97 1014.2
05 06:53 Calm 10.00 Mostly Cloudy FEW007 SCT020 BKN055 53.1 51.1 93% 29.96 1013.9
05 05:53 W 3 10.00 Overcast BKN055 OVC075 53.1 51.1 93% 29.95 1013.4
05 04:53 W 6 10.00 Overcast OVC060 53.1 51.1 53.1 53.1 93% 29.95 1013.5
05 03:53 S 3 10.00 Overcast OVC048 53.1 51.1 93% 29.96 1013.7 0.01
05 02:53 S 5 10.00 Overcast OVC050 53.1 51.1 93% 29.95 1013.6 0.01
05 01:53 S 3 10.00 Light Rain OVC055 53.1 51.1 93% 29.97 1014.2
05 00:53 S 3 10.00 Overcast OVC060 53.1 51.1 93% 29.98 1014.5 0.02
04 23:53 Calm 10.00 Light Rain OVC060 53.1 52 96% 29.98 1014.5
04 22:53 S 5 10.00 Overcast SCT050 BKN070 OVC085 53.1 52 55 53.1 96% 29.98 1014.4 0.11
04 21:53 S 6 10.00 Light Rain FEW011 BKN070 OVC080 53.1 52 96% 30 1015.1
04 20:53 SE 7 10.00 Overcast OVC070 53.1 52 96% 29.98 1014.6 0.01
04 19:53 S 5 9.00 Overcast OVC075 54 52 93% 29.96 1013.9 0.03 0.1
04 18:53 S 5 5.00 Rain Fog/Mist SCT030 OVC080 54 52 93% 29.98 1014.6 0.04
04 17:53 S 6 8.00 Light Rain BKN029 OVC080 55 53.1 93% 29.98 1014.7 0.03
04 16:53 S 3 7.00 Light Rain SCT020 OVC080 55 52 66.9 55 90% 29.98 1014.6 0.03 0.09
04 15:53 SW 7 7.00 Light Rain SCT020 OVC080 55.9 52 87% 29.98 1014.7 0.05
04 14:53 W 9 8.00 Light Rain SCT040 OVC090 57.9 51.1 78% 29.97 1014.2 0.01
04 13:53 SW 8 10.00 Mostly Cloudy BKN040 63 48.9 60% 29.97 1014.4
04 12:53 S 9 10.00 Mostly Cloudy BKN043 64 48.9 58% 29.97 1014.3
04 11:53 Vrbl 6 10.00 Mostly Cloudy BKN035 66 48.9 54% 29.97 1014.3
04 10:53 Vrbl 3 10.00 Partly Cloudy FEW012 SCT028 62.1 48.9 62.1 46.9 62% 29.98 1014.6
04 09:53 S 3 10.00 Partly Cloudy FEW008 SCT025 59 50 72% 29.98 1014.5
04 08:53 Calm 10.00 Partly Cloudy FEW008 SCT025 51.1 50 96% 29.98 1014.7
04 07:53 S 3 0.50 Fog VV002 48.9 48 97% 29.98 1014.5
04 06:53 Calm 0.50 Fog VV002 48 48 100% 29.98 1014.5
04 05:53 Calm 0.25 Fog VV001 46.9 46.9 100% 29.97 1014.1
Date Time (pdt) Wind (mph) Vis. (mi.) Weather Sky Cond. Air Dwpt Max. Min. Relative Humidity Wind Chill (°F) Heat Index (°F) altimeter (in) sea level (mb) 1 hr 3 hr 6 hr
6 hour
Temperature (ºF) Pressure Precipitation (in)